Time;durP1;ratioP1;P1;durP2;ratioP2;P2;SDS_P1;SDS_P2;PMS_P1;PMS_P2;Temp;Humidity;BMP_temperature;BMP_pressure;BME280_temperature;BME280_humidity;BME280_pressure;Samples;Min_cycle;Max_cycle;Signal;HPM_P1;HPM_P2
2022/09/12 00:02:08;;;;;;;;;14.50;13.75;;;;;;;;5088114;27;51199;-55
2022/09/12 00:04:33;;;;;;;;;16.75;16.50;;;;;;;;5084400;27;51123;-53
2022/09/12 00:06:59;;;;;;;;;13.33;12.33;;;;;;;;5083779;27;51250;-53
2022/09/12 00:09:24;;;;;;;;;13.50;13.50;;;;;;;;5075831;27;51175;-53
2022/09/12 00:11:49;;;;;;;;;15.50;15.25;;;;;;;;5073149;27;50990;-54
2022/09/12 00:14:15;;;;;;;;;13.75;13.75;;;;;;;;5081696;27;51146;-51
2022/09/12 00:16:41;;;;;;;;;12.50;12.00;;;;;;;;5089581;27;50970;-54
2022/09/12 00:19:07;;;;;;;;;15.00;14.33;;;;;;;;5090400;27;50889;-53
2022/09/12 00:21:33;;;;;;;;;13.00;12.75;;;;;;;;5076882;27;51339;-56
2022/09/12 00:23:59;;;;;;;;;12.00;12.00;;;;;;;;5075854;27;52118;-53
2022/09/12 00:26:24;;;;;;;;;16.00;15.25;;;;;;;;5075908;27;51183;-54
2022/09/12 00:28:49;;;;;;;;;13.50;13.50;;;;;;;;5080016;27;51087;-55
2022/09/12 00:31:16;;;;;;;;;15.00;14.00;;;;;;;;5089313;27;50907;-53
2022/09/12 00:33:41;;;;;;;;;14.00;13.25;;;;;;;;5082745;27;51137;-54
2022/09/12 00:36:14;;;;;;;;;11.00;10.67;;;;;;;;5078259;27;51087;-54
2022/09/12 00:38:40;;;;;;;;;14.00;12.67;;;;;;;;5080315;27;51258;-53
2022/09/12 00:41:07;;;;;;;;;14.50;14.50;;;;;;;;5090285;27;51188;-55
2022/09/12 00:43:33;;;;;;;;;13.25;13.00;;;;;;;;5084460;27;52800;-54
2022/09/12 00:46:01;;;;;;;;;12.00;11.25;;;;;;;;5077086;27;51213;-54
2022/09/12 00:48:37;;;;;;;;;14.00;14.00;;;;;;;;5075608;27;51143;-54
2022/09/12 00:51:02;;;;;;;;;13.25;13.25;;;;;;;;5076101;27;51551;-53
2022/09/12 00:53:27;;;;;;;;;15.25;13.75;;;;;;;;5083608;27;52051;-52
2022/09/12 00:55:53;;;;;;;;;12.75;11.75;;;;;;;;5080376;27;51134;-53
2022/09/12 00:58:21;;;;;;;;;14.00;13.00;;;;;;;;5072291;27;51088;-55
2022/09/12 01:00:46;;;;;;;;;13.75;13.00;;;;;;;;5078146;27;51221;-55
2022/09/12 01:03:13;;;;;;;;;13.00;13.00;;;;;;;;5080613;27;51184;-54
2022/09/12 01:05:42;;;;;;;;;15.00;15.00;;;;;;;;5074994;27;51006;-54
2022/09/12 01:08:08;;;;;;;;;13.75;13.75;;;;;;;;5086955;27;51325;-53
2022/09/12 01:10:34;;;;;;;;;14.00;11.75;;;;;;;;5077622;27;50865;-54
2022/09/12 01:13:00;;;;;;;;;14.75;14.25;;;;;;;;5078132;27;52111;-54
2022/09/12 01:15:25;;;;;;;;;18.50;15.00;;;;;;;;5079319;27;51034;-54
2022/09/12 01:17:58;;;;;;;;;13.25;13.25;;;;;;;;5081610;27;51030;-55
2022/09/12 01:20:23;;;;;;;;;15.00;14.00;;;;;;;;5080744;27;51373;-54
2022/09/12 01:22:48;;;;;;;;;13.00;13.00;;;;;;;;5072477;27;52205;-54
2022/09/12 01:25:32;;;;;;;;;15.25;15.00;;;;;;;;5080930;27;51204;-52
2022/09/12 01:28:07;;;;;;;;;9.75;9.25;;;;;;;;5081083;27;51274;-55
2022/09/12 01:30:41;;;;;;;;;13.00;12.75;;;;;;;;5070846;27;51151;-54
2022/09/12 01:33:06;;;;;;;;;11.67;11.33;;;;;;;;5071651;27;51213;-53
2022/09/12 01:35:34;;;;;;;;;14.00;13.50;;;;;;;;5083933;27;51004;-52
2022/09/12 01:38:32;;;;;;;;;12.00;12.00;;;;;;;;5091642;27;50897;-54
2022/09/12 01:41:10;;;;;;;;;13.00;13.00;;;;;;;;5078806;27;51196;-53
2022/09/12 01:43:40;;;;;;;;;12.00;12.00;;;;;;;;5078251;27;51379;-53
2022/09/12 01:46:14;;;;;;;;;10.75;10.75;;;;;;;;5072323;27;50887;-54
2022/09/12 01:48:42;;;;;;;;;11.75;11.75;;;;;;;;5073167;27;51038;-54
2022/09/12 01:51:16;;;;;;;;;12.50;12.50;;;;;;;;5077101;27;51551;-54
2022/09/12 01:53:45;;;;;;;;;12.25;11.50;;;;;;;;5074384;27;51187;-55
2022/09/12 01:56:37;;;;;;;;;12.25;11.00;;;;;;;;5070503;27;51080;-53
2022/09/12 01:59:03;;;;;;;;;14.75;14.00;;;;;;;;5070606;27;51182;-54
2022/09/12 02:01:33;;;;;;;;;10.75;10.00;;;;;;;;5078379;27;51370;-54
2022/09/12 02:03:58;;;;;;;;;12.00;12.00;;;;;;;;5073649;27;51891;-53
2022/09/12 02:06:30;;;;;;;;;12.00;10.75;;;;;;;;5084727;27;51104;-54
2022/09/12 02:09:05;;;;;;;;;12.00;11.00;;;;;;;;5075389;27;51229;-56
2022/09/12 02:11:33;;;;;;;;;11.33;11.00;;;;;;;;5080841;27;51203;-53
2022/09/12 02:14:01;;;;;;;;;8.50;8.50;;;;;;;;5076542;27;51990;-56
2022/09/12 02:16:29;;;;;;;;;10.00;9.00;;;;;;;;5077509;27;51412;-54
2022/09/12 02:18:58;;;;;;;;;8.25;8.25;;;;;;;;5090449;27;51068;-56
2022/09/12 02:21:25;;;;;;;;;14.00;12.50;;;;;;;;5076534;27;51245;-56
2022/09/12 02:23:54;;;;;;;;;12.67;12.00;;;;;;;;5075422;27;53070;-54
2022/09/12 02:26:22;;;;;;;;;11.50;11.00;;;;;;;;5082152;27;51369;-54
2022/09/12 02:28:48;;;;;;;;;11.75;11.75;;;;;;;;5084863;27;51459;-54
2022/09/12 02:31:13;;;;;;;;;11.00;11.00;;;;;;;;5073982;27;51243;-53
2022/09/12 02:33:45;;;;;;;;;12.00;11.67;;;;;;;;5085621;27;51136;-54
2022/09/12 02:36:20;;;;;;;;;11.33;10.67;;;;;;;;5079333;27;51143;-56
2022/09/12 02:38:46;;;;;;;;;13.00;12.00;;;;;;;;5077181;27;52403;-54
2022/09/12 02:41:13;;;;;;;;;12.00;11.33;;;;;;;;5074034;27;51092;-53
2022/09/12 02:43:39;;;;;;;;;11.50;10.50;;;;;;;;5092386;27;50929;-54
2022/09/12 02:46:08;;;;;;;;;12.67;12.67;;;;;;;;5084905;27;51965;-54
2022/09/12 02:48:36;;;;;;;;;13.75;12.75;;;;;;;;5073534;27;51027;-55
2022/09/12 02:51:01;;;;;;;;;10.00;9.25;;;;;;;;5073819;27;51195;-54
2022/09/12 02:53:27;;;;;;;;;14.00;12.00;;;;;;;;5073517;27;52020;-54
2022/09/12 02:55:53;;;;;;;;;12.00;11.00;;;;;;;;5074661;27;51176;-55
2022/09/12 02:58:20;;;;;;;;;13.00;13.00;;;;;;;;5072790;27;51342;-55
2022/09/12 03:00:49;;;;;;;;;11.00;10.67;;;;;;;;5078164;27;50876;-53
2022/09/12 03:03:30;;;;;;;;;11.00;11.00;;;;;;;;5080636;27;54498;-54
2022/09/12 03:06:01;;;;;;;;;12.00;11.67;;;;;;;;5083064;27;52776;-53
2022/09/12 03:08:44;;;;;;;;;10.67;10.67;;;;;;;;5087399;27;51149;-53
2022/09/12 03:11:15;;;;;;;;;12.50;12.25;;;;;;;;5085202;27;51056;-54
2022/09/12 03:14:07;;;;;;;;;14.00;11.75;;;;;;;;5079076;27;51803;-54
2022/09/12 03:16:47;;;;;;;;;10.25;10.00;;;;;;;;5074255;27;51882;-53
2022/09/12 03:19:46;;;;;;;;;10.75;10.50;;;;;;;;5079867;27;51237;-55
2022/09/12 03:22:31;;;;;;;;;12.00;12.00;;;;;;;;5051022;27;51092;-54
2022/09/12 03:25:06;;;;;;;;;10.00;10.00;;;;;;;;5072714;27;51345;-55
2022/09/12 03:27:36;;;;;;;;;13.25;11.00;;;;;;;;5072763;27;52037;-54
2022/09/12 03:30:03;;;;;;;;;12.67;11.67;;;;;;;;5076081;27;50898;-54
2022/09/12 03:32:41;;;;;;;;;10.00;9.33;;;;;;;;5072595;27;51370;-55
2022/09/12 03:35:07;;;;;;;;;10.50;10.00;;;;;;;;5075615;27;52122;-54
2022/09/12 03:37:32;;;;;;;;;10.00;10.00;;;;;;;;5079885;27;51218;-53
2022/09/12 03:39:57;;;;;;;;;10.00;10.00;;;;;;;;5090823;27;51202;-54
2022/09/12 03:42:22;;;;;;;;;13.00;12.00;;;;;;;;5074180;27;51348;-54
2022/09/12 03:44:47;;;;;;;;;12.00;11.00;;;;;;;;5083390;27;52246;-54
2022/09/12 03:47:12;;;;;;;;;12.25;12.25;;;;;;;;5077278;27;51413;-54
2022/09/12 03:49:38;;;;;;;;;13.25;12.25;;;;;;;;5083404;27;51061;-55
2022/09/12 03:52:03;;;;;;;;;12.50;12.00;;;;;;;;5079190;27;51095;-54
2022/09/12 03:54:28;;;;;;;;;12.50;12.50;;;;;;;;5077811;27;51064;-55
2022/09/12 03:56:53;;;;;;;;;12.67;12.00;;;;;;;;5076280;27;51092;-54
2022/09/12 03:59:19;;;;;;;;;13.75;12.50;;;;;;;;5086348;27;51277;-54
2022/09/12 04:01:44;;;;;;;;;12.00;11.67;;;;;;;;5085546;27;51244;-53
2022/09/12 04:04:09;;;;;;;;;10.50;10.00;;;;;;;;5073280;27;52270;-54
2022/09/12 04:06:35;;;;;;;;;13.75;13.00;;;;;;;;5077690;27;52506;-54
2022/09/12 04:09:00;;;;;;;;;12.00;12.00;;;;;;;;5068712;27;51349;-53
2022/09/12 04:11:25;;;;;;;;;11.25;11.25;;;;;;;;5072260;27;51196;-54
2022/09/12 04:13:50;;;;;;;;;10.67;10.67;;;;;;;;5071227;27;52277;-54
2022/09/12 04:16:16;;;;;;;;;12.00;12.00;;;;;;;;5085479;27;50994;-53
2022/09/12 04:18:42;;;;;;;;;10.00;10.00;;;;;;;;5086822;27;51041;-54
2022/09/12 04:21:09;;;;;;;;;11.00;11.00;;;;;;;;5081398;27;51131;-54
2022/09/12 04:23:34;;;;;;;;;10.00;10.00;;;;;;;;5074268;27;52020;-53
2022/09/12 04:26:00;;;;;;;;;9.50;9.50;;;;;;;;5072238;27;51197;-54
2022/09/12 04:28:27;;;;;;;;;13.25;13.25;;;;;;;;5081660;27;51233;-54
2022/09/12 04:30:53;;;;;;;;;11.00;11.00;;;;;;;;5075011;27;51942;-54
2022/09/12 04:33:18;;;;;;;;;15.25;15.25;;;;;;;;5076529;27;51691;-53
2022/09/12 04:35:44;;;;;;;;;9.00;9.00;;;;;;;;5087698;27;51158;-55
2022/09/12 04:38:09;;;;;;;;;13.50;12.00;;;;;;;;5073589;27;51131;-55
2022/09/12 04:40:34;;;;;;;;;12.25;12.00;;;;;;;;5076036;27;51160;-53
2022/09/12 04:43:00;;;;;;;;;12.00;12.00;;;;;;;;5075775;27;51054;-54
2022/09/12 04:45:25;;;;;;;;;13.75;12.00;;;;;;;;5072639;27;50902;-53
2022/09/12 04:47:50;;;;;;;;;11.00;11.00;;;;;;;;5086314;27;51186;-54
2022/09/12 04:50:16;;;;;;;;;11.75;10.75;;;;;;;;5071757;27;51330;-55
2022/09/12 04:52:41;;;;;;;;;11.00;11.00;;;;;;;;5074524;27;53606;-53
2022/09/12 04:55:07;;;;;;;;;12.75;11.00;;;;;;;;5085599;27;51218;-55
2022/09/12 04:57:32;;;;;;;;;15.25;15.25;;;;;;;;5082279;27;51205;-55
2022/09/12 04:59:58;;;;;;;;;11.00;10.50;;;;;;;;5074546;27;51097;-56
2022/09/12 05:02:24;;;;;;;;;15.00;14.00;;;;;;;;5079910;27;51284;-54
2022/09/12 05:04:49;;;;;;;;;14.00;13.00;;;;;;;;5072565;27;51057;-54
2022/09/12 05:07:14;;;;;;;;;15.75;14.25;;;;;;;;5084589;27;51063;-56
2022/09/12 05:09:40;;;;;;;;;12.50;12.25;;;;;;;;5084317;27;51199;-53
2022/09/12 05:12:06;;;;;;;;;10.00;8.00;;;;;;;;5074068;27;51884;-55
2022/09/12 05:14:32;;;;;;;;;11.67;11.00;;;;;;;;5084464;27;51139;-56
2022/09/12 05:17:00;;;;;;;;;14.50;14.50;;;;;;;;5083390;27;51388;-55
2022/09/12 05:19:25;;;;;;;;;11.00;11.00;;;;;;;;5079919;27;51124;-54
2022/09/12 05:21:50;;;;;;;;;11.00;11.00;;;;;;;;5078687;27;52788;-54
2022/09/12 05:24:15;;;;;;;;;13.50;12.75;;;;;;;;5075031;27;51140;-55
2022/09/12 05:26:41;;;;;;;;;12.25;12.00;;;;;;;;5075854;27;51195;-55
2022/09/12 05:29:06;;;;;;;;;13.00;12.25;;;;;;;;5076613;27;52063;-56
2022/09/12 05:31:31;;;;;;;;;12.25;12.25;;;;;;;;5083621;27;51243;-54
2022/09/12 05:33:56;;;;;;;;;14.50;13.50;;;;;;;;5084746;27;51684;-53
2022/09/12 05:36:23;;;;;;;;;12.25;12.25;;;;;;;;5084974;27;51142;-55
2022/09/12 05:38:48;;;;;;;;;13.25;12.25;;;;;;;;5085101;27;51112;-51
2022/09/12 05:41:18;;;;;;;;;10.25;10.25;;;;;;;;5087972;27;51891;-54
2022/09/12 05:43:44;;;;;;;;;10.00;9.75;;;;;;;;5087858;27;51197;-55
2022/09/12 05:46:19;;;;;;;;;11.33;11.00;;;;;;;;5083360;27;50878;-56
2022/09/12 05:48:45;;;;;;;;;11.75;11.25;;;;;;;;5080593;27;51550;-56
2022/09/12 05:51:11;;;;;;;;;13.75;13.75;;;;;;;;5085973;27;51685;-53
2022/09/12 05:53:37;;;;;;;;;12.25;12.00;;;;;;;;5088131;27;51361;-57
2022/09/12 05:56:02;;;;;;;;;11.00;11.00;;;;;;;;5090691;27;51076;-56
2022/09/12 05:58:28;;;;;;;;;15.50;13.75;;;;;;;;5090024;27;51243;-54
2022/09/12 06:00:53;;;;;;;;;11.00;11.00;;;;;;;;5086747;27;51131;-55
2022/09/12 06:03:18;;;;;;;;;12.00;11.00;;;;;;;;5085394;27;51171;-54
2022/09/12 06:05:43;;;;;;;;;11.75;11.50;;;;;;;;5086086;27;51375;-54
2022/09/12 06:08:08;;;;;;;;;13.00;13.00;;;;;;;;5088697;27;51516;-54
2022/09/12 06:10:34;;;;;;;;;12.00;11.25;;;;;;;;5085096;27;51752;-55
2022/09/12 06:12:59;;;;;;;;;12.00;11.67;;;;;;;;5084688;27;51263;-54
2022/09/12 06:15:24;;;;;;;;;14.00;11.50;;;;;;;;5089051;27;51129;-54
2022/09/12 06:17:50;;;;;;;;;14.75;13.75;;;;;;;;5086477;27;51269;-53
2022/09/12 06:20:15;;;;;;;;;12.00;12.00;;;;;;;;5077132;27;51148;-51
2022/09/12 06:22:40;;;;;;;;;12.67;12.67;;;;;;;;5086245;27;51186;-52
2022/09/12 06:25:06;;;;;;;;;13.00;12.00;;;;;;;;5080386;27;51686;-51
2022/09/12 06:27:31;;;;;;;;;11.67;10.67;;;;;;;;5083194;27;51380;-53
2022/09/12 06:29:56;;;;;;;;;11.33;10.33;;;;;;;;5076944;27;53314;-52
2022/09/12 06:32:21;;;;;;;;;10.00;9.67;;;;;;;;5073761;27;51066;-50
2022/09/12 06:34:47;;;;;;;;;9.00;8.00;;;;;;;;5073304;27;50898;-52
2022/09/12 06:37:12;;;;;;;;;10.67;9.00;;;;;;;;5079132;27;51114;-51
2022/09/12 06:39:38;;;;;;;;;9.00;8.00;;;;;;;;5085228;27;51813;-52
2022/09/12 06:42:03;;;;;;;;;10.00;9.00;;;;;;;;5077478;27;51043;-55
2022/09/12 06:44:28;;;;;;;;;9.33;9.33;;;;;;;;5072035;27;51810;-54
2022/09/12 06:46:53;;;;;;;;;11.67;11.33;;;;;;;;5081627;27;51239;-54
2022/09/12 06:49:19;;;;;;;;;8.00;8.00;;;;;;;;5079528;27;51783;-54
2022/09/12 06:51:44;;;;;;;;;7.67;7.67;;;;;;;;5072459;27;50966;-55
2022/09/12 06:54:14;;;;;;;;;8.00;8.00;;;;;;;;5074497;27;51178;-54
2022/09/12 06:56:39;;;;;;;;;9.00;8.67;;;;;;;;5074270;28;51115;-54
2022/09/12 06:59:05;;;;;;;;;9.00;9.00;;;;;;;;5073802;27;52036;-54
2022/09/12 07:01:31;;;;;;;;;10.00;10.00;;;;;;;;5090929;27;51191;-56
2022/09/12 07:04:01;;;;;;;;;8.33;8.33;;;;;;;;5091115;27;51106;-53
2022/09/12 07:06:30;;;;;;;;;10.00;9.67;;;;;;;;5079899;27;51272;-53
2022/09/12 07:08:57;;;;;;;;;11.00;10.67;;;;;;;;5087930;27;52309;-53
2022/09/12 07:11:23;;;;;;;;;8.33;7.00;;;;;;;;5086148;27;51151;-51
2022/09/12 07:13:50;;;;;;;;;8.00;7.67;;;;;;;;5076077;27;51103;-54
2022/09/12 07:16:16;;;;;;;;;9.00;8.00;;;;;;;;5081968;27;50988;-53
2022/09/12 07:18:42;;;;;;;;;9.67;8.33;;;;;;;;5078182;27;50976;-54
2022/09/12 07:21:10;;;;;;;;;7.67;7.00;;;;;;;;5075106;27;51169;-55
2022/09/12 07:23:35;;;;;;;;;7.00;7.00;;;;;;;;5074525;27;50948;-54
2022/09/12 07:26:01;;;;;;;;;6.67;6.33;;;;;;;;5090453;27;51387;-54
2022/09/12 07:28:27;;;;;;;;;5.67;5.00;;;;;;;;5096074;27;51036;-54
2022/09/12 07:30:53;;;;;;;;;9.00;8.00;;;;;;;;5086759;27;51110;-54
2022/09/12 07:33:19;;;;;;;;;10.00;10.00;;;;;;;;5092651;27;50894;-59
2022/09/12 07:35:44;;;;;;;;;9.33;9.33;;;;;;;;5086836;27;51048;-58
2022/09/12 07:38:09;;;;;;;;;6.33;5.67;;;;;;;;5093808;27;52459;-58
2022/09/12 07:40:35;;;;;;;;;8.00;8.00;;;;;;;;5091790;27;51360;-57
2022/09/12 07:43:00;;;;;;;;;12.00;8.67;;;;;;;;5093260;27;51069;-58
2022/09/12 07:45:25;;;;;;;;;10.00;9.00;;;;;;;;5092968;27;50902;-58
2022/09/12 07:47:52;;;;;;;;;9.33;8.33;;;;;;;;5093838;27;51770;-58
2022/09/12 07:50:18;;;;;;;;;11.67;10.67;;;;;;;;5093920;27;51026;-58
2022/09/12 07:52:43;;;;;;;;;10.67;9.67;;;;;;;;5088255;27;51000;-57
2022/09/12 07:55:08;;;;;;;;;11.67;11.00;;;;;;;;5092982;27;51061;-57
2022/09/12 07:57:33;;;;;;;;;8.67;8.67;;;;;;;;5089360;27;51239;-57
2022/09/12 07:59:59;;;;;;;;;12.00;11.00;;;;;;;;5073327;28;50918;-58
2022/09/12 08:02:24;;;;;;;;;7.33;7.00;;;;;;;;5076046;27;51221;-58
2022/09/12 08:04:50;;;;;;;;;9.00;9.00;;;;;;;;5073536;27;51211;-58
2022/09/12 08:07:17;;;;;;;;;12.00;12.00;;;;;;;;5072482;28;52399;-58
2022/09/12 08:09:42;;;;;;;;;9.33;9.33;;;;;;;;5073217;27;50989;-58
2022/09/12 08:12:07;;;;;;;;;9.00;8.67;;;;;;;;5072875;27;51084;-58
2022/09/12 08:14:32;;;;;;;;;12.00;10.67;;;;;;;;5094070;27;51038;-58
2022/09/12 08:16:57;;;;;;;;;7.33;7.33;;;;;;;;5089861;27;51125;-58
2022/09/12 08:19:23;;;;;;;;;9.67;8.33;;;;;;;;5073250;27;51132;-58
2022/09/12 08:21:48;;;;;;;;;0.00;0.00;;;;;;;;5073061;28;50880;-58
2022/09/12 08:24:14;;;;;;;;;9.67;9.00;;;;;;;;5073121;27;51098;-58
2022/09/12 08:26:39;;;;;;;;;9.67;9.67;;;;;;;;5072385;27;50988;-58
2022/09/12 08:29:05;;;;;;;;;10.33;10.33;;;;;;;;5087781;27;51198;-58
2022/09/12 08:31:35;;;;;;;;;7.33;7.33;;;;;;;;5072851;27;50925;-58
2022/09/12 08:34:01;;;;;;;;;13.00;9.00;;;;;;;;5072684;27;50960;-58
2022/09/12 08:36:26;;;;;;;;;8.67;8.67;;;;;;;;5072233;27;51005;-57
2022/09/12 08:39:00;;;;;;;;;6.67;6.67;;;;;;;;5071520;28;51060;-59
2022/09/12 08:41:45;;;;;;;;;9.00;8.00;;;;;;;;5073324;27;50961;-58
2022/09/12 08:44:16;;;;;;;;;8.67;8.33;;;;;;;;5078006;27;51314;-59
2022/09/12 08:46:44;;;;;;;;;6.67;6.67;;;;;;;;5092608;27;51220;-59
2022/09/12 08:49:12;;;;;;;;;8.67;8.00;;;;;;;;5093096;27;51086;-58
2022/09/12 08:51:38;;;;;;;;;6.00;6.00;;;;;;;;5092667;27;51081;-58
2022/09/12 08:54:04;;;;;;;;;6.67;6.67;;;;;;;;5085463;27;50854;-59
2022/09/12 08:56:34;;;;;;;;;8.33;8.33;;;;;;;;5072068;27;51052;-59
2022/09/12 08:58:59;;;;;;;;;5.67;5.00;;;;;;;;5072302;27;50937;-59
2022/09/12 09:01:34;;;;;;;;;7.67;7.67;;;;;;;;5083217;27;51266;-58
2022/09/12 09:04:19;;;;;;;;;9.67;9.00;;;;;;;;5072678;27;51366;-57
2022/09/12 09:07:03;;;;;;;;;9.00;8.00;;;;;;;;5071460;27;52304;-57
2022/09/12 09:09:28;;;;;;;;;7.33;7.33;;;;;;;;5073850;27;51071;-59
2022/09/12 09:12:03;;;;;;;;;7.00;7.00;;;;;;;;5075676;27;51039;-58
2022/09/12 09:14:47;;;;;;;;;6.67;6.67;;;;;;;;5076246;27;51206;-59
2022/09/12 09:17:27;;;;;;;;;6.00;6.00;;;;;;;;5086333;27;52207;-59
2022/09/12 09:19:58;;;;;;;;;6.33;5.33;;;;;;;;5074291;28;50952;-59
2022/09/12 09:22:35;;;;;;;;;5.33;5.33;;;;;;;;5075639;28;51149;-59
2022/09/12 09:25:04;;;;;;;;;11.00;10.00;;;;;;;;5075306;27;51381;-58
2022/09/12 09:27:35;;;;;;;;;6.00;6.00;;;;;;;;5081183;27;50916;-58
2022/09/12 09:30:01;;;;;;;;;7.00;7.00;;;;;;;;5075076;27;51089;-58
2022/09/12 09:32:26;;;;;;;;;5.67;5.67;;;;;;;;5075531;28;50998;-58
2022/09/12 09:34:51;;;;;;;;;6.00;6.00;;;;;;;;5075416;28;51080;-58
2022/09/12 09:37:35;;;;;;;;;6.67;6.33;;;;;;;;5075069;27;51750;-58
2022/09/12 09:40:10;;;;;;;;;5.00;5.00;;;;;;;;5075523;27;51090;-58
2022/09/12 09:42:52;;;;;;;;;5.67;5.67;;;;;;;;5075400;27;50989;-59
2022/09/12 09:45:23;;;;;;;;;6.00;5.00;;;;;;;;5080748;27;51363;-58
2022/09/12 09:48:11;;;;;;;;;5.67;5.33;;;;;;;;5073110;27;52253;-57
2022/09/12 09:50:37;;;;;;;;;6.67;6.67;;;;;;;;5072879;28;51293;-59
2022/09/12 09:53:04;;;;;;;;;4.00;4.00;;;;;;;;5083942;27;51001;-58
2022/09/12 09:55:37;;;;;;;;;4.00;4.00;;;;;;;;5096089;27;50952;-58
2022/09/12 09:58:02;;;;;;;;;4.00;4.00;;;;;;;;5095498;27;52265;-58
2022/09/12 10:00:30;;;;;;;;;3.67;3.67;;;;;;;;5095480;27;51150;-58
2022/09/12 10:03:15;;;;;;;;;6.33;6.33;;;;;;;;5084316;27;51116;-59
2022/09/12 10:05:52;;;;;;;;;4.00;4.00;;;;;;;;5080332;27;51446;-58
2022/09/12 10:08:21;;;;;;;;;4.00;4.00;;;;;;;;5094950;27;50919;-59
2022/09/12 10:11:25;;;;;;;;;3.00;3.00;;;;;;;;5095555;27;50891;-57
2022/09/12 10:14:01;;;;;;;;;3.67;3.00;;;;;;;;5054385;28;51310;-57
2022/09/12 10:16:32;;;;;;;;;4.67;4.67;;;;;;;;5068360;28;51141;-57
2022/09/12 10:18:59;;;;;;;;;3.67;3.67;;;;;;;;5074310;27;51154;-58
2022/09/12 10:21:35;;;;;;;;;5.00;4.67;;;;;;;;5094381;27;51002;-58
2022/09/12 10:24:13;;;;;;;;;5.00;4.00;;;;;;;;5094409;27;51021;-58
2022/09/12 10:26:38;;;;;;;;;4.33;4.33;;;;;;;;5095057;27;51063;-59
2022/09/12 10:29:10;;;;;;;;;7.67;7.67;;;;;;;;5094941;27;52225;-58
2022/09/12 10:31:42;;;;;;;;;2.00;2.00;;;;;;;;5074696;27;50885;-58
2022/09/12 10:34:18;;;;;;;;;5.67;4.67;;;;;;;;5077186;27;51027;-58
2022/09/12 10:36:43;;;;;;;;;4.67;4.67;;;;;;;;5087497;27;51200;-58
2022/09/12 10:39:16;;;;;;;;;4.33;4.33;;;;;;;;5094099;27;52130;-58
2022/09/12 10:41:41;;;;;;;;;4.67;4.00;;;;;;;;5095209;27;51152;-58
2022/09/12 10:44:08;;;;;;;;;3.67;3.33;;;;;;;;5095185;27;51098;-58
2022/09/12 10:46:34;;;;;;;;;4.33;4.33;;;;;;;;5067038;28;51299;-58
2022/09/12 10:49:17;;;;;;;;;5.67;5.67;;;;;;;;5074145;27;51183;-58
2022/09/12 10:51:43;;;;;;;;;2.33;2.33;;;;;;;;5084679;27;51070;-58
2022/09/12 10:54:10;;;;;;;;;2.00;2.00;;;;;;;;5076512;27;51165;-58
2022/09/12 10:56:42;;;;;;;;;5.67;4.67;;;;;;;;5074239;27;51192;-59
2022/09/12 10:59:07;;;;;;;;;5.00;5.00;;;;;;;;5073617;27;50956;-58
2022/09/12 11:01:35;;;;;;;;;2.00;2.00;;;;;;;;5072542;27;51024;-58
2022/09/12 11:04:07;;;;;;;;;4.00;2.67;;;;;;;;5073567;27;51117;-59
2022/09/12 11:06:52;;;;;;;;;5.00;4.67;;;;;;;;5075787;27;51104;-59
2022/09/12 11:09:32;;;;;;;;;2.00;2.00;;;;;;;;5081489;27;51681;-59
2022/09/12 11:11:57;;;;;;;;;1.67;1.67;;;;;;;;5093891;27;51125;-59
2022/09/12 11:14:38;;;;;;;;;1.00;1.00;;;;;;;;5076912;27;51067;-59
2022/09/12 11:17:04;;;;;;;;;2.00;2.00;;;;;;;;5081478;27;51146;-58
2022/09/12 11:19:29;;;;;;;;;2.00;2.00;;;;;;;;5073508;27;51031;-58
2022/09/12 11:21:57;;;;;;;;;1.00;1.00;;;;;;;;5073515;27;51108;-58
2022/09/12 11:24:22;;;;;;;;;9.00;9.00;;;;;;;;5083490;27;51090;-58
2022/09/12 11:27:07;;;;;;;;;3.00;3.00;;;;;;;;5094113;27;51339;-59
2022/09/12 11:29:45;;;;;;;;;2.33;2.33;;;;;;;;5088735;27;51858;-57
2022/09/12 11:32:29;;;;;;;;;2.00;2.00;;;;;;;;5088906;27;50989;-58
2022/09/12 11:35:01;;;;;;;;;1.00;1.00;;;;;;;;5093010;27;51153;-58
2022/09/12 11:37:29;;;;;;;;;2.00;2.00;;;;;;;;5087946;27;50965;-58
2022/09/12 11:39:59;;;;;;;;;2.33;2.33;;;;;;;;5093864;27;52116;-58
2022/09/12 11:42:29;;;;;;;;;3.00;3.00;;;;;;;;5093864;27;50962;-58
2022/09/12 11:44:59;;;;;;;;;1.00;1.00;;;;;;;;5089982;27;51103;-58
2022/09/12 11:47:27;;;;;;;;;3.00;3.00;;;;;;;;5081983;27;50927;-58
2022/09/12 11:49:53;;;;;;;;;3.33;3.00;;;;;;;;5093977;27;52019;-58
2022/09/12 11:52:21;;;;;;;;;1.33;1.00;;;;;;;;5087385;27;51428;-58
2022/09/12 11:54:49;;;;;;;;;3.00;2.67;;;;;;;;5072976;27;51091;-58
2022/09/12 11:57:25;;;;;;;;;5.00;5.00;;;;;;;;5072995;27;51294;-59
2022/09/12 11:59:56;;;;;;;;;2.00;2.00;;;;;;;;5072142;27;50957;-59
2022/09/12 12:02:26;;;;;;;;;0.67;0.67;;;;;;;;5085467;27;51005;-58
2022/09/12 12:05:06;;;;;;;;;1.00;1.00;;;;;;;;5072792;27;50902;-59
2022/09/12 12:07:45;;;;;;;;;4.67;4.33;;;;;;;;5077852;27;51149;-58
2022/09/12 12:10:23;;;;;;;;;3.00;3.00;;;;;;;;5092935;27;50896;-58
2022/09/12 12:12:49;;;;;;;;;2.00;2.00;;;;;;;;5084559;27;51085;-59
2022/09/12 12:15:15;;;;;;;;;1.67;1.67;;;;;;;;5071310;27;51052;-59
2022/09/12 12:17:40;;;;;;;;;1.00;1.00;;;;;;;;5079482;27;51376;-58
2022/09/12 12:20:14;;;;;;;;;2.00;2.00;;;;;;;;5072561;27;51652;-59
2022/09/12 12:22:49;;;;;;;;;0.00;0.00;;;;;;;;5075705;27;51212;-59
2022/09/12 12:25:15;;;;;;;;;2.00;2.00;;;;;;;;5071658;28;50994;-60
2022/09/12 12:27:43;;;;;;;;;0.00;0.00;;;;;;;;5074503;27;51048;-58
2022/09/12 12:30:27;;;;;;;;;1.00;1.00;;;;;;;;5075670;27;52020;-59
2022/09/12 12:32:57;;;;;;;;;1.00;1.00;;;;;;;;5072136;27;50946;-58
2022/09/12 12:35:52;;;;;;;;;48.75;41.25;;;;;;;;5072020;27;51203;-60
2022/09/12 12:38:30;;;;;;;;;2.00;2.00;;;;;;;;5085085;27;51181;-59
2022/09/12 12:41:14;;;;;;;;;1.33;1.00;;;;;;;;5084888;27;51202;-59
2022/09/12 12:43:40;;;;;;;;;1.33;1.33;;;;;;;;5092332;27;51245;-58
2022/09/12 12:46:06;;;;;;;;;0.00;0.00;;;;;;;;5092542;27;51081;-59
2022/09/12 12:48:34;;;;;;;;;0.00;0.00;;;;;;;;5092763;27;50960;-59
2022/09/12 12:51:34;;;;;;;;;0.00;0.00;;;;;;;;5077066;27;51059;-59
2022/09/12 12:54:01;;;;;;;;;2.00;2.00;;;;;;;;5074781;27;51232;-59
2022/09/12 12:56:40;;;;;;;;;1.00;1.00;;;;;;;;5070959;27;51208;-59
2022/09/12 12:59:20;;;;;;;;;1.00;1.00;;;;;;;;5071886;27;50927;-57
2022/09/12 13:01:46;;;;;;;;;1.67;1.67;;;;;;;;5091861;27;51085;-59
2022/09/12 13:04:14;;;;;;;;;1.67;1.00;;;;;;;;5078237;27;50919;-59
2022/09/12 13:06:42;;;;;;;;;3.33;2.00;;;;;;;;5071609;27;51133;-59
2022/09/12 13:09:20;;;;;;;;;3.00;3.00;;;;;;;;5072042;27;50942;-58
2022/09/12 13:11:53;;;;;;;;;3.00;3.00;;;;;;;;5076428;27;51968;-59
2022/09/12 13:14:33;;;;;;;;;2.00;2.00;;;;;;;;5094595;27;51101;-58
2022/09/12 13:17:00;;;;;;;;;2.00;2.00;;;;;;;;5084964;27;51000;-61
2022/09/12 13:19:28;;;;;;;;;2.00;1.00;;;;;;;;5071912;27;51088;-59
2022/09/12 13:21:54;;;;;;;;;3.67;2.00;;;;;;;;5091753;27;52084;-59
2022/09/12 13:24:21;;;;;;;;;4.00;4.00;;;;;;;;5092382;27;51098;-59
2022/09/12 13:26:46;;;;;;;;;2.00;2.00;;;;;;;;5091393;27;50996;-58
2022/09/12 13:29:14;;;;;;;;;2.67;2.00;;;;;;;;5092507;27;51325;-59
2022/09/12 13:31:40;;;;;;;;;3.33;2.33;;;;;;;;5089483;27;52421;-58
2022/09/12 13:34:08;;;;;;;;;3.00;2.00;;;;;;;;5092083;27;51069;-58
2022/09/12 13:36:37;;;;;;;;;2.00;2.00;;;;;;;;5091818;27;51007;-58
2022/09/12 13:39:02;;;;;;;;;2.00;2.00;;;;;;;;5092272;27;51519;-59
2022/09/12 13:41:57;;;;;;;;;1.00;1.00;;;;;;;;5074461;27;51840;-60
2022/09/12 13:44:23;;;;;;;;;1.67;1.67;;;;;;;;5081094;27;51060;-59
2022/09/12 13:46:49;;;;;;;;;1.00;1.00;;;;;;;;5071914;27;50959;-60
2022/09/12 13:49:17;;;;;;;;;1.33;1.33;;;;;;;;5072108;27;51239;-60
2022/09/12 13:51:42;;;;;;;;;0.00;0.00;;;;;;;;5071339;27;52293;-59
2022/09/12 13:54:15;;;;;;;;;2.00;2.00;;;;;;;;5087432;27;51161;-59
2022/09/12 13:56:47;;;;;;;;;2.00;2.00;;;;;;;;5093723;27;50925;-59
2022/09/12 13:59:13;;;;;;;;;2.00;2.00;;;;;;;;5096152;27;50898;-60
2022/09/12 14:01:39;;;;;;;;;1.67;1.67;;;;;;;;5086708;27;50888;-60
2022/09/12 14:07:16;;;;;;;;;1.33;1.33;;;;;;;;5094472;27;50932;-60
2022/09/12 14:09:42;;;;;;;;;0.00;0.00;;;;;;;;5082075;27;51142;-57
2022/09/12 14:12:29;;;;;;;;;0.33;0.33;;;;;;;;5074770;27;50985;-59
2022/09/12 14:14:55;;;;;;;;;1.00;1.00;;;;;;;;5085689;27;51119;-61
2022/09/12 14:17:28;;;;;;;;;2.00;2.00;;;;;;;;5083252;27;50843;-58
2022/09/12 14:19:53;;;;;;;;;2.00;2.00;;;;;;;;5073484;28;50934;-58
2022/09/12 14:22:19;;;;;;;;;2.00;1.67;;;;;;;;5074240;27;51798;-59
2022/09/12 14:24:49;;;;;;;;;3.00;3.00;;;;;;;;5074794;27;51032;-59
2022/09/12 14:27:16;;;;;;;;;2.00;2.00;;;;;;;;5074667;27;51048;-57
2022/09/12 14:29:42;;;;;;;;;2.33;2.33;;;;;;;;5075466;27;51110;-60
2022/09/12 14:32:17;;;;;;;;;1.33;1.33;;;;;;;;5072646;28;52943;-59
2022/09/12 14:35:02;;;;;;;;;1.33;1.33;;;;;;;;5087255;27;51114;-59
2022/09/12 14:37:27;;;;;;;;;2.00;1.00;;;;;;;;5094666;27;50942;-58
2022/09/12 14:39:52;;;;;;;;;1.00;1.00;;;;;;;;5095019;27;50938;-57
2022/09/12 14:42:25;;;;;;;;;2.00;2.00;;;;;;;;5094600;27;50934;-59
2022/09/12 14:44:57;;;;;;;;;2.00;2.00;;;;;;;;5089163;27;51263;-59
2022/09/12 14:47:24;;;;;;;;;1.00;1.00;;;;;;;;5094947;27;50970;-58